Time;durP1;ratioP1;P1;durP2;ratioP2;P2;SDS_P1;SDS_P2;PMS_P1;PMS_P2;Temp;Humidity;BMP_temperature;BMP_pressure;BME280_temperature;BME280_humidity;BME280_pressure;Samples;Min_cycle;Max_cycle;Signal;HPM_P1;HPM_P2
2022/01/25 00:24:51;;;;;;;37.13;17.27;;;4.20;99.90;;;;;;5033389;28;20064;-83
2022/01/25 00:29:58;;;;;;;34.50;16.13;;;4.80;99.90;;;;;;5033479;28;20041;-84
2022/01/25 00:32:24;;;;;;;38.00;16.63;;;4.20;99.90;;;;;;5015462;28;20079;-82
2022/01/25 00:34:50;;;;;;;32.42;14.13;;;4.90;99.90;;;;;;5033256;28;20037;-82
2022/01/25 00:37:16;;;;;;;33.38;14.88;;;4.80;99.90;;;;;;5033277;28;20061;-83
2022/01/25 00:39:42;;;;;;;31.50;13.48;;;3.00;99.90;;;;;;5033830;28;20034;-83
2022/01/25 00:42:08;;;;;;;42.10;17.20;;;4.30;99.90;;;;;;4998732;28;20421;-82
2022/01/25 00:44:38;;;;;;;35.97;16.13;;;4.10;99.90;;;;;;5015740;28;20059;-82
2022/01/25 00:47:08;;;;;;;32.95;13.88;;;4.70;99.90;;;;;;5032996;28;20100;-82
2022/01/25 00:49:38;;;;;;;32.88;14.77;;;5.00;99.90;;;;;;5015619;28;20041;-82
2022/01/25 00:53:53;;;;;;;39.30;16.30;;;3.80;99.90;;;;;;5033082;28;20049;-83
2022/01/25 00:55:09;;;;;;;37.90;16.63;;;4.10;99.90;;;;;;5029246;28;20391;-83
2022/01/25 00:57:35;;;;;;;37.38;15.73;;;4.10;99.90;;;;;;5014868;28;20068;-82
2022/01/25 01:00:00;;;;;;;33.40;16.00;;;4.00;99.90;;;;;;5033066;28;20455;-82
2022/01/25 01:02:26;;;;;;;33.80;15.30;;;4.80;99.90;;;;;;5032833;28;20108;-83
2022/01/25 01:04:52;;;;;;;30.45;13.02;;;3.60;99.90;;;;;;5014890;28;20047;-83
2022/01/25 01:07:18;;;;;;;30.17;13.95;;;4.10;99.90;;;;;;5032341;28;20065;-83
2022/01/25 01:09:47;;;;;;;39.45;16.98;;;5.10;99.90;;;;;;5032379;28;20541;-82
2022/01/25 01:12:25;;;;;;;37.05;15.15;;;5.70;99.90;;;;;;5032537;28;20049;-82
2022/01/25 01:31:12;;;;;;;34.85;15.63;;;4.90;99.90;;;;;;5032460;28;20406;-83
2022/01/25 01:37:23;;;;;;;35.15;14.48;;;2.80;99.90;;;;;;4990678;28;20133;-82
2022/01/25 01:40:00;;;;;;;47.58;18.73;;;4.00;99.90;;;;;;4973717;28;20137;-83
2022/01/25 01:47:43;;;;;;;35.30;14.95;;;4.80;99.90;;;;;;4973854;28;20055;-83
2022/01/25 01:50:14;;;;;;;35.38;16.17;;;4.10;99.90;;;;;;4990792;28;20181;-83
2022/01/25 01:52:40;;;;;;;47.20;19.85;;;4.00;99.90;;;;;;4990728;28;20399;-82
2022/01/25 01:55:07;;;;;;;33.80;15.68;;;4.10;99.90;;;;;;4990671;28;20053;-83
2022/01/25 01:57:32;;;;;;;39.78;16.55;;;4.10;99.90;;;;;;4974353;28;20129;-83
2022/01/25 01:59:58;;;;;;;35.22;16.35;;;4.80;99.90;;;;;;4990804;28;20142;-83
2022/01/25 02:02:24;;;;;;;35.20;15.30;;;4.00;99.90;;;;;;4989889;28;20112;-83
2022/01/25 02:04:50;;;;;;;39.58;18.15;;;3.20;99.90;;;;;;4990629;28;20058;-83
2022/01/25 02:07:15;;;;;;;36.67;16.95;;;4.00;99.90;;;;;;4991509;28;20057;-83
2022/01/25 02:09:41;;;;;;;34.20;14.25;;;4.10;99.90;;;;;;4997105;28;20122;-82
2022/01/25 02:12:07;;;;;;;32.30;14.25;;;4.10;99.90;;;;;;5016197;28;20131;-82
2022/01/25 02:14:35;;;;;;;36.22;16.75;;;4.00;99.90;;;;;;5035486;28;20049;-83
2022/01/25 02:17:36;;;;;;;39.67;17.40;;;4.40;99.90;;;;;;5035910;28;20037;-83
2022/01/25 02:22:48;;;;;;;31.20;13.57;;;4.60;99.90;;;;;;5036008;28;20057;-83
2022/01/25 02:25:14;;;;;;;33.60;14.07;;;4.00;99.90;;;;;;5017760;28;20046;-83
2022/01/25 02:27:40;;;;;;;33.30;14.43;;;4.00;99.90;;;;;;5018151;28;20143;-82
2022/01/25 02:30:06;;;;;;;41.00;17.13;;;4.00;99.90;;;;;;5035735;28;20045;-83
2022/01/25 02:32:31;;;;;;;39.63;17.35;;;4.00;99.90;;;;;;5035698;28;21204;-84
2022/01/25 02:34:57;;;;;;;41.70;16.50;;;4.10;99.90;;;;;;5017881;28;20068;-82
2022/01/25 02:37:23;;;;;;;37.55;16.90;;;4.10;99.90;;;;;;5035593;28;20406;-83
2022/01/25 02:39:48;;;;;;;36.30;16.45;;;4.00;99.90;;;;;;5035648;28;20045;-82
2022/01/25 02:42:16;;;;;;;34.13;15.60;;;4.90;99.90;;;;;;5017878;28;20053;-83
2022/01/25 02:44:43;;;;;;;36.92;15.82;;;3.60;99.90;;;;;;5017725;28;20082;-83
2022/01/25 02:49:55;;;;;;;41.20;16.17;;;3.30;99.90;;;;;;5035128;28;20048;-83
2022/01/25 02:52:21;;;;;;;37.83;16.90;;;4.40;99.90;;;;;;5013251;28;20049;-83
2022/01/25 02:54:46;;;;;;;36.78;16.70;;;3.80;99.90;;;;;;5017595;28;20137;-83
2022/01/25 02:57:13;;;;;;;35.03;15.27;;;4.50;99.90;;;;;;5000927;28;20088;-83
2022/01/25 02:59:39;;;;;;;35.20;14.85;;;4.40;99.90;;;;;;5035226;28;20037;-83
2022/01/25 03:02:04;;;;;;;40.85;16.50;;;4.20;99.90;;;;;;5009235;28;20077;-83
2022/01/25 03:04:30;;;;;;;37.35;15.57;;;4.70;99.90;;;;;;5017605;28;20469;-83
2022/01/25 03:06:56;;;;;;;41.05;17.05;;;4.90;99.90;;;;;;5034751;28;20042;-84
2022/01/25 03:09:22;;;;;;;37.08;15.52;;;4.00;99.90;;;;;;5017401;28;20501;-83
2022/01/25 03:11:51;;;;;;;30.48;13.88;;;5.50;99.90;;;;;;5016983;28;20041;-83
2022/01/25 03:14:19;;;;;;;37.80;15.77;;;4.00;99.90;;;;;;5034707;28;20124;-84
2022/01/25 03:16:52;;;;;;;40.38;17.15;;;5.20;99.90;;;;;;5017128;28;20128;-83
2022/01/25 03:22:18;;;;;;;32.53;13.95;;;5.00;99.90;;;;;;5017210;28;20124;-83
2022/01/25 03:24:45;;;;;;;32.08;13.85;;;4.40;99.90;;;;;;5029943;28;20034;-83
2022/01/25 03:27:11;;;;;;;34.22;15.32;;;3.60;99.90;;;;;;5016750;28;20045;-83
2022/01/25 03:29:36;;;;;;;37.83;15.57;;;5.20;99.90;;;;;;5016826;28;20401;-83
2022/01/25 03:32:03;;;;;;;32.05;14.23;;;4.10;99.90;;;;;;5034751;28;20451;-83
2022/01/25 03:34:29;;;;;;;36.97;16.92;;;4.00;99.90;;;;;;5034226;28;20482;-83
2022/01/25 03:36:54;;;;;;;35.50;15.52;;;4.10;99.90;;;;;;5034770;28;20048;-84
2022/01/25 03:39:22;;;;;;;36.60;15.63;;;4.00;99.90;;;;;;5034217;28;20102;-83
2022/01/25 03:41:48;;;;;;;35.72;16.45;;;4.70;99.90;;;;;;5016660;28;20045;-83
2022/01/25 03:44:16;;;;;;;33.05;14.48;;;4.70;99.90;;;;;;5034604;28;20053;-83
2022/01/25 03:51:58;;;;;;;35.47;14.88;;;4.50;99.90;;;;;;5034538;28;20092;-84
2022/01/25 03:54:24;;;;;;;33.22;14.27;;;4.50;99.90;;;;;;5016455;28;20081;-83
2022/01/25 03:56:50;;;;;;;33.30;14.98;;;3.90;99.90;;;;;;5033948;28;20038;-83
2022/01/25 03:59:15;;;;;;;36.83;16.73;;;4.00;99.90;;;;;;5016389;28;20401;-83
2022/01/25 04:01:41;;;;;;;41.50;17.90;;;4.80;99.90;;;;;;5016120;28;20393;-82
2022/01/25 04:04:11;;;;;;;44.67;18.27;;;4.20;99.90;;;;;;5016223;28;20115;-83
2022/01/25 04:06:37;;;;;;;42.38;18.48;;;4.40;99.90;;;;;;5034175;28;20045;-83
2022/01/25 04:09:08;;;;;;;37.88;16.73;;;4.30;99.90;;;;;;5015625;28;20063;-84
2022/01/25 04:11:34;;;;;;;35.47;15.05;;;4.70;99.90;;;;;;5033746;28;20037;-83
2022/01/25 04:14:00;;;;;;;32.65;14.82;;;3.80;99.90;;;;;;5015770;28;20045;-83
2022/01/25 04:16:35;;;;;;;32.78;14.80;;;3.80;99.90;;;;;;5033807;28;20060;-83
2022/01/25 04:19:24;;;;;;;32.42;14.40;;;3.90;99.90;;;;;;5033411;28;20393;-82
2022/01/25 04:27:09;;;;;;;38.20;15.70;;;4.10;99.90;;;;;;5033470;28;20042;-83
2022/01/25 04:29:35;;;;;;;43.85;17.60;;;3.90;99.90;;;;;;5015622;28;20509;-83
2022/01/25 04:32:01;;;;;;;35.15;15.60;;;2.60;99.90;;;;;;5015726;28;20132;-84
2022/01/25 04:53:13;;;;;;;33.17;14.85;;;3.90;99.90;;;;;;5032961;28;20057;-83
2022/01/25 04:55:56;;;;;;;35.00;15.73;;;4.10;99.90;;;;;;5014940;28;20077;-85
2022/01/25 04:58:33;;;;;;;32.70;15.23;;;4.40;99.90;;;;;;5032911;28;20037;-85
2022/01/25 05:00:59;;;;;;;35.15;15.57;;;3.90;99.90;;;;;;5032760;28;20045;-85
2022/01/25 05:03:33;;;;;;;29.35;13.48;;;4.20;99.90;;;;;;5014553;28;20049;-82
2022/01/25 05:06:13;;;;;;;32.88;14.35;;;3.80;99.90;;;;;;5014445;28;20076;-83
2022/01/25 05:08:44;;;;;;;36.25;16.00;;;3.90;99.90;;;;;;5018576;28;20470;-83
2022/01/25 05:11:32;;;;;;;32.90;14.30;;;4.40;99.90;;;;;;5012646;28;20069;-83
2022/01/25 05:16:32;;;;;;;33.03;15.05;;;3.90;99.90;;;;;;5006359;28;20482;-82
2022/01/25 05:24:16;;;;;;;32.05;15.15;;;3.90;99.90;;;;;;5012252;28;20080;-82
2022/01/25 05:26:42;;;;;;;32.17;14.00;;;5.60;99.90;;;;;;5012453;28;20057;-83
2022/01/25 05:29:08;;;;;;;30.58;13.60;;;5.20;99.90;;;;;;5011327;28;20049;-83
2022/01/25 05:31:36;;;;;;;32.25;13.82;;;5.00;99.90;;;;;;4979306;28;20375;-82
2022/01/25 05:34:02;;;;;;;29.90;12.75;;;4.30;99.90;;;;;;5012404;28;20050;-82
2022/01/25 05:36:28;;;;;;;32.33;13.43;;;4.90;99.90;;;;;;4993859;28;20474;-82
2022/01/25 05:38:58;;;;;;;29.55;13.48;;;3.10;99.90;;;;;;5012585;28;20046;-82
2022/01/25 05:41:30;;;;;;;31.65;14.23;;;3.90;99.90;;;;;;4993966;28;20053;-83
2022/01/25 05:46:32;;;;;;;25.63;11.50;;;4.40;99.90;;;;;;5011836;28;20124;-84
2022/01/25 05:48:58;;;;;;;29.15;13.48;;;4.40;99.90;;;;;;5012127;28;20042;-83
2022/01/25 05:51:23;;;;;;;29.13;13.80;;;3.90;99.90;;;;;;4994623;28;20378;-83
2022/01/25 05:53:49;;;;;;;33.40;14.45;;;4.00;99.90;;;;;;5011513;28;20038;-83
2022/01/25 05:56:16;;;;;;;32.80;14.90;;;4.60;99.90;;;;;;4994251;28;20045;-83
2022/01/25 05:58:42;;;;;;;31.27;13.57;;;3.00;99.90;;;;;;5011737;28;20045;-83
2022/01/25 06:01:08;;;;;;;35.00;14.95;;;4.70;99.90;;;;;;4994919;28;20134;-84
2022/01/25 06:03:33;;;;;;;27.65;12.93;;;3.40;99.90;;;;;;5011459;28;20041;-83
2022/01/25 06:05:59;;;;;;;34.70;14.15;;;4.70;99.90;;;;;;4994278;28;20038;-83
2022/01/25 06:08:25;;;;;;;33.33;14.52;;;4.90;99.90;;;;;;5023447;28;20134;-83
2022/01/25 06:10:51;;;;;;;30.98;13.15;;;3.90;99.90;;;;;;5031993;28;20390;-83
2022/01/25 06:13:17;;;;;;;28.40;12.85;;;3.90;99.90;;;;;;5024511;28;20045;-83
2022/01/25 06:15:42;;;;;;;34.15;14.60;;;4.40;99.90;;;;;;5014071;28;20049;-84
2022/01/25 06:18:08;;;;;;;32.85;14.57;;;4.40;99.90;;;;;;5013753;28;20045;-84
2022/01/25 06:20:34;;;;;;;34.88;15.80;;;4.00;99.90;;;;;;5032210;28;20076;-84
2022/01/25 06:23:00;;;;;;;32.35;14.48;;;4.10;99.90;;;;;;5031679;28;20050;-83
2022/01/25 06:25:26;;;;;;;32.42;14.10;;;3.90;99.90;;;;;;5023929;28;20037;-84
2022/01/25 06:27:52;;;;;;;31.55;14.38;;;3.50;99.90;;;;;;5031672;28;20076;-83
2022/01/25 06:30:19;;;;;;;31.98;14.00;;;4.40;99.90;;;;;;5014332;28;20136;-83
2022/01/25 06:32:46;;;;;;;34.40;14.18;;;4.30;99.90;;;;;;5014191;28;20128;-84
2022/01/25 06:35:13;;;;;;;28.92;13.18;;;4.30;99.90;;;;;;5014137;28;20049;-84
2022/01/25 06:37:39;;;;;;;29.58;12.10;;;3.90;99.90;;;;;;5013539;28;20046;-84
2022/01/25 06:40:06;;;;;;;29.38;13.50;;;4.20;99.90;;;;;;5031697;28;20052;-84
2022/01/25 06:42:33;;;;;;;33.55;14.95;;;3.90;99.90;;;;;;5030563;28;20121;-83
2022/01/25 06:45:02;;;;;;;31.42;13.30;;;4.40;99.90;;;;;;5030442;28;20077;-83
2022/01/25 06:47:29;;;;;;;31.75;14.00;;;4.10;99.90;;;;;;5031374;28;20038;-83
2022/01/25 06:49:55;;;;;;;36.88;15.55;;;5.20;99.90;;;;;;5031859;28;20057;-83
2022/01/25 06:52:20;;;;;;;35.63;15.07;;;4.10;99.90;;;;;;5031810;28;20069;-83
2022/01/25 06:54:46;;;;;;;32.20;14.07;;;3.70;99.90;;;;;;5017587;28;20093;-83
2022/01/25 06:57:12;;;;;;;34.30;14.32;;;3.90;99.90;;;;;;5035373;28;20070;-83
2022/01/25 06:59:37;;;;;;;30.88;14.13;;;4.00;99.90;;;;;;5017156;28;20048;-83
2022/01/25 07:02:04;;;;;;;28.55;12.60;;;4.40;99.90;;;;;;5017167;28;20113;-84
2022/01/25 07:04:29;;;;;;;31.80;13.75;;;3.90;99.90;;;;;;5035080;28;20052;-84
2022/01/25 07:06:55;;;;;;;28.42;12.60;;;3.40;99.90;;;;;;5034287;28;20037;-84
2022/01/25 07:09:21;;;;;;;30.85;13.50;;;3.90;99.90;;;;;;5016163;28;20410;-84
2022/01/25 07:11:47;;;;;;;36.00;13.68;;;4.40;99.90;;;;;;5017225;28;20057;-86
2022/01/25 07:14:12;;;;;;;28.65;12.50;;;3.60;99.90;;;;;;5010889;28;20121;-85
2022/01/25 07:16:38;;;;;;;32.63;14.43;;;4.50;99.90;;;;;;5016831;28;20038;-85
2022/01/25 07:19:04;;;;;;;33.03;13.30;;;4.40;99.90;;;;;;5034576;28;20112;-85
2022/01/25 07:21:30;;;;;;;30.20;13.10;;;4.50;99.90;;;;;;5016944;28;20041;-86
2022/01/25 07:23:56;;;;;;;29.75;14.25;;;4.00;99.90;;;;;;5017245;28;20056;-84
2022/01/25 07:26:22;;;;;;;31.73;14.10;;;3.90;99.90;;;;;;5034783;28;20034;-84
2022/01/25 07:28:47;;;;;;;36.30;15.57;;;4.10;99.90;;;;;;5034515;28;20038;-84
2022/01/25 07:31:13;;;;;;;36.50;15.77;;;4.10;99.90;;;;;;5034551;28;20091;-85
2022/01/25 07:33:39;;;;;;;33.03;15.52;;;3.90;99.90;;;;;;5017084;28;20072;-85
2022/01/25 07:36:05;;;;;;;35.30;14.70;;;3.80;99.90;;;;;;5034140;28;20049;-84
2022/01/25 07:38:32;;;;;;;36.63;15.80;;;4.30;99.90;;;;;;5034945;28;20049;-85
2022/01/25 07:40:59;;;;;;;31.88;13.90;;;3.90;99.90;;;;;;5034384;28;20091;-84
2022/01/25 07:43:26;;;;;;;34.97;15.73;;;4.80;99.90;;;;;;5034297;28;20046;-85
2022/01/25 07:45:53;;;;;;;34.03;14.43;;;5.30;99.90;;;;;;5033443;28;20099;-84
2022/01/25 07:48:21;;;;;;;34.22;13.50;;;3.90;99.90;;;;;;5033990;28;20049;-85
2022/01/25 07:50:47;;;;;;;32.05;13.77;;;3.90;99.90;;;;;;5034477;28;20033;-84
2022/01/25 07:53:13;;;;;;;33.58;14.60;;;4.60;99.90;;;;;;5034261;28;20045;-88
2022/01/25 07:55:38;;;;;;;36.58;14.48;;;4.50;99.90;;;;;;5016201;28;20095;-88
2022/01/25 07:58:05;;;;;;;31.73;14.98;;;4.40;99.90;;;;;;5016053;28;20046;-84
2022/01/25 08:00:30;;;;;;;33.15;13.68;;;4.90;99.90;;;;;;5034296;28;20073;-84
2022/01/25 08:02:57;;;;;;;33.38;14.52;;;3.90;99.90;;;;;;5016233;28;20072;-84
2022/01/25 08:05:25;;;;;;;35.90;16.33;;;4.30;99.90;;;;;;5014184;28;20128;-85
2022/01/25 08:07:51;;;;;;;35.10;15.50;;;4.00;99.90;;;;;;5010797;28;20049;-83
2022/01/25 08:10:17;;;;;;;33.42;15.02;;;4.00;99.90;;;;;;5033867;28;20049;-85
2022/01/25 08:12:43;;;;;;;38.58;16.55;;;4.50;99.90;;;;;;5033406;28;20102;-84
2022/01/25 08:15:09;;;;;;;43.28;17.55;;;4.00;99.90;;;;;;5034225;28;20146;-85
2022/01/25 08:17:36;;;;;;;46.15;18.83;;;3.90;99.90;;;;;;5033521;28;20053;-84
2022/01/25 08:20:02;;;;;;;52.65;20.85;;;4.40;99.90;;;;;;5033449;28;20099;-85
2022/01/25 08:22:28;;;;;;;40.25;16.63;;;4.10;99.90;;;;;;5032650;28;20420;-85
2022/01/25 08:24:54;;;;;;;38.20;15.95;;;4.00;99.90;;;;;;5032848;28;20045;-83
2022/01/25 08:27:22;;;;;;;32.58;13.23;;;4.30;99.90;;;;;;5033298;28;20049;-83
2022/01/25 08:29:49;;;;;;;32.53;15.38;;;4.00;99.90;;;;;;5033517;28;20036;-85
2022/01/25 08:32:14;;;;;;;36.28;15.65;;;4.80;99.90;;;;;;5033512;28;20128;-85
2022/01/25 08:34:40;;;;;;;34.00;14.38;;;3.90;99.90;;;;;;5029110;28;20141;-82
2022/01/25 08:37:06;;;;;;;43.13;18.58;;;3.90;99.90;;;;;;5033801;28;20092;-84
2022/01/25 08:39:32;;;;;;;44.30;19.88;;;4.70;99.90;;;;;;5033232;28;20486;-84
2022/01/25 08:41:58;;;;;;;42.95;17.83;;;3.70;99.90;;;;;;5015372;28;20041;-84
2022/01/25 08:44:24;;;;;;;35.90;16.50;;;4.80;99.90;;;;;;5033647;28;20050;-83
2022/01/25 08:46:50;;;;;;;34.05;15.88;;;3.90;99.90;;;;;;5032974;28;20045;-85
2022/01/25 08:49:16;;;;;;;30.77;13.40;;;4.70;99.90;;;;;;5015214;28;20080;-83
2022/01/25 08:51:42;;;;;;;35.63;15.35;;;4.50;99.90;;;;;;5032888;28;20478;-82
2022/01/25 08:54:08;;;;;;;32.97;15.00;;;3.00;99.90;;;;;;5033332;28;20041;-83
2022/01/25 08:56:34;;;;;;;40.10;17.08;;;4.90;99.90;;;;;;5032591;28;20068;-84
2022/01/25 08:59:00;;;;;;;41.33;17.67;;;4.70;99.90;;;;;;5015267;28;20409;-84
2022/01/25 09:01:26;;;;;;;38.22;16.77;;;5.70;99.90;;;;;;5032778;28;20390;-83
2022/01/25 09:03:54;;;;;;;36.00;15.10;;;4.00;99.90;;;;;;5032844;28;20045;-83
2022/01/25 09:06:20;;;;;;;39.90;15.88;;;4.90;99.90;;;;;;5032885;28;20437;-84
2022/01/25 09:08:46;;;;;;;39.53;15.80;;;4.70;99.90;;;;;;5032596;28;20103;-84
2022/01/25 09:11:12;;;;;;;38.25;16.80;;;4.50;99.90;;;;;;5032949;28;20433;-84
2022/01/25 09:13:39;;;;;;;37.28;15.48;;;3.90;99.90;;;;;;5032306;28;20049;-83
2022/01/25 09:16:07;;;;;;;33.15;14.25;;;4.00;99.90;;;;;;5014618;28;20041;-85
2022/01/25 09:18:32;;;;;;;36.85;14.10;;;4.00;99.90;;;;;;5032256;28;20076;-80
2022/01/25 09:20:58;;;;;;;35.75;15.10;;;4.00;99.90;;;;;;5032265;28;20504;-80
2022/01/25 09:23:25;;;;;;;43.50;18.00;;;4.00;99.90;;;;;;5032836;28;20517;-80
2022/01/25 09:25:52;;;;;;;38.83;16.23;;;4.00;99.90;;;;;;5032578;28;20127;-80
2022/01/25 09:28:18;;;;;;;39.38;16.73;;;4.00;99.90;;;;;;5014983;28;20045;-81
2022/01/25 09:30:44;;;;;;;45.40;17.60;;;4.00;99.90;;;;;;5032613;28;20156;-80
2022/01/25 09:33:10;;;;;;;34.72;15.02;;;4.50;99.90;;;;;;5032338;28;20115;-81
2022/01/25 09:35:36;;;;;;;40.60;17.02;;;4.00;99.90;;;;;;5032476;28;20032;-81
2022/01/25 09:38:02;;;;;;;43.05;17.52;;;4.60;99.90;;;;;;5032053;28;20485;-81
2022/01/25 09:40:28;;;;;;;38.83;16.65;;;4.00;99.90;;;;;;5032407;28;20038;-81
2022/01/25 09:42:57;;;;;;;43.78;16.95;;;4.90;99.90;;;;;;5032293;28;20041;-81
2022/01/25 09:45:23;;;;;;;42.75;17.73;;;4.10;99.90;;;;;;5032400;28;20049;-81
2022/01/25 09:47:51;;;;;;;37.60;15.90;;;4.00;99.90;;;;;;5032462;28;20049;-80
2022/01/25 09:50:18;;;;;;;41.55;17.48;;;5.00;99.90;;;;;;5032150;28;20037;-81
2022/01/25 09:52:45;;;;;;;38.20;14.63;;;4.10;99.90;;;;;;5032146;28;20477;-80
2022/01/25 09:55:15;;;;;;;35.80;14.10;;;4.10;99.90;;;;;;5014338;28;20441;-81
2022/01/25 09:57:41;;;;;;;34.58;14.60;;;4.80;99.90;;;;;;5032206;28;20478;-81
2022/01/25 10:00:10;;;;;;;41.00;17.30;;;4.10;99.90;;;;;;5014690;28;20359;-80
2022/01/25 10:03:01;;;;;;;37.83;14.98;;;4.10;99.90;;;;;;5032272;28;20076;-80
2022/01/25 10:05:33;;;;;;;41.83;17.70;;;4.10;99.90;;;;;;5031428;28;20121;-80
2022/01/25 10:08:23;;;;;;;41.22;17.63;;;4.50;99.90;;;;;;5032056;28;20452;-81
2022/01/25 10:10:53;;;;;;;41.75;17.17;;;4.10;99.90;;;;;;5032366;28;20052;-81
2022/01/25 10:13:22;;;;;;;39.95;16.92;;;4.10;99.90;;;;;;5032073;28;20045;-81
2022/01/25 10:15:52;;;;;;;40.45;16.65;;;4.10;99.90;;;;;;5031943;28;20041;-81
2022/01/25 10:18:18;;;;;;;44.17;18.13;;;4.10;99.90;;;;;;5032063;28;20396;-80
2022/01/25 10:20:47;;;;;;;37.55;15.82;;;4.20;99.90;;;;;;5014424;28;20041;-83
2022/01/25 10:23:21;;;;;;;38.03;16.35;;;4.70;99.90;;;;;;5014298;28;20049;-82
2022/01/25 10:25:51;;;;;;;35.07;15.77;;;4.20;99.90;;;;;;5031987;28;20049;-87
2022/01/25 10:28:23;;;;;;;33.75;14.52;;;4.60;99.90;;;;;;5032610;28;20049;-81
2022/01/25 10:30:53;;;;;;;39.05;16.42;;;4.20;99.90;;;;;;5036114;28;20037;-82
2022/01/25 10:33:43;;;;;;;39.00;16.38;;;4.90;99.90;;;;;;5018813;28;20080;-81
2022/01/25 10:36:11;;;;;;;45.15;17.42;;;4.20;99.90;;;;;;5036406;28;20112;-82
2022/01/25 10:38:39;;;;;;;38.45;16.98;;;4.20;99.90;;;;;;5036108;28;20041;-81
2022/01/25 10:41:08;;;;;;;39.08;16.38;;;4.90;99.90;;;;;;5036059;28;20068;-82
2022/01/25 10:43:36;;;;;;;42.53;18.75;;;4.80;99.90;;;;;;5036006;28;20068;-81
2022/01/25 10:46:11;;;;;;;37.30;15.60;;;4.30;99.90;;;;;;5018541;28;20119;-81
2022/01/25 10:48:40;;;;;;;41.03;15.60;;;4.80;99.90;;;;;;5017999;28;20089;-82
2022/01/25 10:51:12;;;;;;;38.25;15.77;;;4.30;99.90;;;;;;5035801;28;20049;-81
2022/01/25 10:53:39;;;;;;;38.00;16.33;;;5.20;99.90;;;;;;5001802;28;20092;-82
2022/01/25 10:56:07;;;;;;;40.53;15.68;;;4.30;99.90;;;;;;5018303;28;20073;-82
2022/01/25 10:58:38;;;;;;;37.08;15.45;;;4.50;99.90;;;;;;5017958;28;20049;-84
2022/01/25 11:01:04;;;;;;;35.65;15.15;;;4.40;99.90;;;;;;5035737;28;20045;-81
2022/01/25 11:03:40;;;;;;;34.35;15.05;;;4.60;99.90;;;;;;5035676;28;20049;-84
2022/01/25 11:06:18;;;;;;;34.17;14.10;;;5.20;99.90;;;;;;5035617;28;20079;-84
2022/01/25 11:08:49;;;;;;;30.60;12.82;;;4.40;99.90;;;;;;5035548;28;20088;-84
2022/01/25 11:11:32;;;;;;;32.45;13.10;;;4.40;99.90;;;;;;5017908;28;20117;-84
2022/01/25 11:14:49;;;;;;;32.03;12.98;;;4.40;99.90;;;;;;5034952;28;20156;-83
2022/01/25 11:16:43;;;;;;;32.60;14.10;;;4.50;99.90;;;;;;5033986;28;20077;-84
2022/01/25 11:19:09;;;;;;;43.25;17.42;;;3.60;99.90;;;;;;5033887;28;20087;-85
2022/01/25 11:21:35;;;;;;;36.40;16.30;;;4.40;99.90;;;;;;5030094;28;20048;-83
2022/01/25 11:24:00;;;;;;;37.28;16.20;;;5.20;99.90;;;;;;5016259;28;20435;-81
2022/01/25 11:26:28;;;;;;;35.53;14.52;;;4.40;99.90;;;;;;5026563;28;20481;-83
2022/01/25 11:28:54;;;;;;;41.63;18.33;;;5.10;99.90;;;;;;5033436;28;20511;-84
2022/01/25 11:31:23;;;;;;;45.75;19.48;;;4.40;99.90;;;;;;5034585;28;20159;-83
2022/01/25 11:33:51;;;;;;;45.33;18.42;;;5.50;99.90;;;;;;5033284;28;20536;-82
2022/01/25 11:36:17;;;;;;;36.25;16.77;;;4.50;99.90;;;;;;5016895;28;20100;-82
2022/01/25 11:38:46;;;;;;;41.90;17.73;;;4.70;99.90;;;;;;5016339;28;20045;-83
2022/01/25 11:41:14;;;;;;;41.75;16.38;;;4.50;99.90;;;;;;5026188;28;20124;-82
2022/01/25 11:44:11;;;;;;;38.90;15.30;;;5.00;99.90;;;;;;5016456;28;20052;-82
2022/01/25 11:46:40;;;;;;;36.38;15.65;;;4.40;99.90;;;;;;5028919;28;20045;-85
2022/01/25 11:49:15;;;;;;;38.78;15.88;;;4.40;99.90;;;;;;5033733;28;20061;-83
2022/01/25 11:51:42;;;;;;;44.05;17.33;;;4.40;99.90;;;;;;5016673;28;20041;-84
2022/01/25 11:54:09;;;;;;;40.20;16.88;;;4.80;99.90;;;;;;5033067;28;20049;-83
2022/01/25 11:56:39;;;;;;;36.38;16.00;;;4.60;99.90;;;;;;5034015;28;20445;-83
2022/01/25 11:59:05;;;;;;;41.17;17.50;;;4.40;99.90;;;;;;5032912;28;20042;-83
2022/01/25 12:01:34;;;;;;;42.00;16.42;;;5.10;99.90;;;;;;5033266;28;20049;-84
2022/01/25 12:04:03;;;;;;;39.25;16.52;;;4.40;99.90;;;;;;5033519;28;20091;-84
2022/01/25 12:06:33;;;;;;;43.70;18.40;;;4.90;99.90;;;;;;5016551;28;20526;-84
2022/01/25 12:12:00;;;;;;;43.05;18.75;;;4.40;99.90;;;;;;5033745;28;20152;-83
2022/01/25 12:14:55;;;;;;;53.55;21.73;;;4.40;99.90;;;;;;5027013;28;20493;-82
2022/01/25 12:17:24;;;;;;;51.05;20.02;;;4.30;99.90;;;;;;5023247;28;20045;-85
2022/01/25 12:19:55;;;;;;;45.28;18.60;;;4.80;99.90;;;;;;5033292;28;20382;-85
2022/01/25 12:27:55;;;;;;;40.92;18.02;;;4.40;99.90;;;;;;5033369;28;20084;-83
2022/01/25 12:30:31;;;;;;;42.25;18.85;;;5.00;99.90;;;;;;5033455;28;20049;-84
2022/01/25 12:33:02;;;;;;;46.88;20.30;;;4.40;99.90;;;;;;5025847;28;20536;-82
2022/01/25 12:35:37;;;;;;;47.92;20.80;;;5.00;99.90;;;;;;5032129;28;20033;-83
2022/01/25 12:38:06;;;;;;;55.55;22.83;;;4.80;99.90;;;;;;5032189;28;20049;-84
2022/01/25 12:40:38;;;;;;;40.22;16.80;;;4.50;99.90;;;;;;5032568;28;20034;-84
2022/01/25 12:43:07;;;;;;;51.45;22.92;;;4.50;99.90;;;;;;5032706;28;20054;-83
2022/01/25 12:45:41;;;;;;;43.25;19.15;;;4.40;99.90;;;;;;5015089;28;20046;-83
2022/01/25 12:48:10;;;;;;;46.27;19.43;;;5.10;99.90;;;;;;5015191;28;20042;-85
2022/01/25 12:50:39;;;;;;;43.40;19.27;;;4.50;99.90;;;;;;5031637;28;20085;-83
2022/01/25 12:53:07;;;;;;;53.30;21.30;;;4.60;99.90;;;;;;5032344;28;20095;-85
2022/01/25 12:55:40;;;;;;;44.03;18.27;;;5.50;99.90;;;;;;5014925;28;20111;-83
2022/01/25 12:58:07;;;;;;;48.08;18.83;;;4.60;99.90;;;;;;5032055;28;20079;-82
2022/01/25 13:00:42;;;;;;;42.65;18.73;;;5.40;99.90;;;;;;5013730;28;20053;-83
2022/01/25 13:03:14;;;;;;;46.67;19.00;;;5.40;99.90;;;;;;5030736;28;20160;-83
2022/01/25 13:06:05;;;;;;;39.78;16.63;;;4.60;99.90;;;;;;5032382;28;20041;-82
2022/01/25 13:08:43;;;;;;;49.75;20.00;;;4.80;99.90;;;;;;5030514;28;20528;-83
2022/01/25 13:11:37;;;;;;;37.90;16.65;;;4.60;99.90;;;;;;5026616;28;20509;-83
2022/01/25 13:16:48;;;;;;;46.60;18.88;;;4.60;99.90;;;;;;5031636;28;20048;-83
2022/01/25 13:19:25;;;;;;;38.33;17.88;;;5.60;99.90;;;;;;5032125;28;20489;-84
2022/01/25 13:22:04;;;;;;;37.35;15.50;;;4.60;99.90;;;;;;5013777;28;20041;-87
2022/01/25 13:24:34;;;;;;;38.33;16.40;;;5.40;99.90;;;;;;5032514;28;20041;-84
2022/01/25 13:27:01;;;;;;;44.67;17.10;;;4.60;99.90;;;;;;5032125;28;20402;-84
2022/01/25 13:32:22;;;;;;;47.38;18.40;;;4.90;99.90;;;;;;5033229;28;20065;-82
2022/01/25 13:35:12;;;;;;;44.05;17.63;;;4.70;99.90;;;;;;5015076;28;20103;-81
2022/01/25 13:37:38;;;;;;;41.67;15.93;;;4.60;99.90;;;;;;5015580;28;20065;-81
2022/01/25 13:40:05;;;;;;;42.35;17.63;;;4.90;99.90;;;;;;5032725;28;20481;-81
2022/01/25 13:45:44;;;;;;;34.85;15.32;;;4.40;99.90;;;;;;4971830;28;20141;-81
2022/01/25 13:48:14;;;;;;;40.72;16.23;;;5.00;99.90;;;;;;4971736;28;20053;-81
2022/01/25 13:50:41;;;;;;;39.17;16.50;;;4.60;99.90;;;;;;4971160;28;20494;-81
2022/01/25 13:53:08;;;;;;;37.38;16.58;;;4.60;99.90;;;;;;4971388;28;20090;-82
2022/01/25 13:55:35;;;;;;;37.67;15.93;;;4.60;99.90;;;;;;4971831;28;20491;-82
2022/01/25 13:58:02;;;;;;;37.92;15.13;;;5.30;99.90;;;;;;4955691;28;20109;-80
2022/01/25 14:00:28;;;;;;;42.47;16.95;;;4.60;99.90;;;;;;4971831;28;20078;-83
2022/01/25 14:02:56;;;;;;;38.90;15.55;;;4.80;99.90;;;;;;4971271;28;20069;-82
2022/01/25 14:05:22;;;;;;;41.83;16.17;;;4.60;99.90;;;;;;4971805;28;20054;-82
2022/01/25 14:07:51;;;;;;;39.70;17.83;;;4.80;99.90;;;;;;4970751;28;20498;-85
2022/01/25 14:10:23;;;;;;;40.83;16.92;;;4.80;99.90;;;;;;4970847;28;20055;-84
2022/01/25 14:23:54;;;;;;;53.42;20.90;;;4.40;99.90;;;;;;5012882;28;20504;-83
2022/01/25 14:26:27;;;;;;;43.15;18.33;;;5.50;99.90;;;;;;5012888;28;20402;-84
2022/01/25 14:28:58;;;;;;;42.45;16.90;;;5.30;99.90;;;;;;5012613;28;20053;-83
2022/01/25 14:31:25;;;;;;;38.28;17.55;;;4.60;99.90;;;;;;5012729;28;20372;-83
2022/01/25 14:33:59;;;;;;;43.20;17.80;;;4.70;99.90;;;;;;5019006;28;20437;-83
2022/01/25 14:36:26;;;;;;;38.80;16.42;;;5.10;99.90;;;;;;5032488;28;20172;-83
2022/01/25 14:38:54;;;;;;;42.83;16.90;;;5.20;99.90;;;;;;5014904;28;20448;-82
2022/01/25 14:41:32;;;;;;;39.72;15.55;;;4.50;99.90;;;;;;5031923;28;20046;-82
2022/01/25 14:44:05;;;;;;;35.00;15.73;;;4.50;99.90;;;;;;5014738;28;20054;-83
2022/01/25 14:46:45;;;;;;;35.00;14.52;;;4.40;99.90;;;;;;5031437;28;20096;-83
2022/01/25 14:49:23;;;;;;;44.08;18.02;;;3.10;99.90;;;;;;5032238;28;20056;-83
2022/01/25 14:52:04;;;;;;;37.38;16.55;;;4.40;99.90;;;;;;5014638;28;20375;-83